If you wish to contribute or participate in the discussions about articles you are invited to join SKYbrary as a registered user

 Actions

Osijek Airport

From SKYbrary Wiki

LDOS /
Revision as of 15:51, 25 August 2021 by Integration.Manager (talk | contribs) (Created page with "{{Airport |Airport_Name=Osijek Airport |ICAO_Region=EUR |ICAO_Territory=LD |IATA Code=OSI |Elevation=291ft |Location=Klisa |Main city served=Osijek |ISO_Subdivision_Name=Slavo...")
(diff) ← Older revision | Latest revision (diff) | Newer revision → (diff)
Airport
ICAO: LDOS – IATA: OSI
Summary
Name Osijek Airport
Region Europe
Territory Croatia HR.gif
Location Klisa, Slavonia
Serving Osijek
Elevation 88.697 m <br />291 ft88.697 m <br />
Coordinates 45° 27' 39.17" N, 18° 49' 1.42" E
Runways
Designator Length Width Surface ROPS
11/29 2499 m8,198.819 ft <br /> 45 m147.638 ft <br /> ASP /


METAR
Observation LDOS 270000Z 27006KT 4000 BR NSC 02/02 Q1026
Station Osijek / Cepin
Date/Time 27 October 2021 00:00:00
Wind direction 270°
Wind speed 06 kts
Lowest cloud amount nil significant cloud
Temperature 2°C
Dew point 2°C
Humidity 100%
QNH 1026 hPa
Weather condition n/a

Osijek Airport is the international airport of Osijek, Croatia.

Climatology

Humid continental climate (Köppen climate classification Dfb)

Maps

Terrain

Loading map...

Airport Layout

Loading map...


Accidents & Serious Incidents at or in vicinity of LDOS

None on SKYbrary